createdAt,value
2017-07-06T00:06:50.000Z,49.182
2017-07-06T00:16:50.000Z,48.48
2017-07-06T00:26:50.000Z,49.862
2017-07-06T00:36:50.000Z,49.391
2017-07-06T00:46:50.000Z,48.428
2017-07-06T00:56:50.000Z,48.941
2017-07-06T01:06:50.000Z,48.984
2017-07-06T01:16:50.000Z,48.722
2017-07-06T01:26:50.000Z,48.741
2017-07-06T01:36:50.000Z,49.17
2017-07-06T01:46:50.000Z,49.31
2017-07-06T01:56:50.000Z,49.64
2017-07-06T02:06:50.000Z,49.51
2017-07-06T02:16:50.000Z,49.457
2017-07-06T02:26:50.000Z,49.498
2017-07-06T02:36:50.000Z,49.753
2017-07-06T02:46:50.000Z,50.213
2017-07-06T02:56:50.000Z,49.978
2017-07-06T03:06:50.000Z,49.924
2017-07-06T03:16:50.000Z,50.167
2017-07-06T03:26:51.000Z,49.833
2017-07-06T03:36:50.000Z,49.992
2017-07-06T03:46:50.000Z,50.28
2017-07-06T03:56:50.000Z,50.299
2017-07-06T04:06:50.000Z,50.131
2017-07-06T04:16:51.000Z,50.75
2017-07-06T04:26:51.000Z,50.435
2017-07-06T04:36:51.000Z,50.631
2017-07-06T04:46:51.000Z,50.653
2017-07-06T04:56:51.000Z,50.665
2017-07-06T05:06:51.000Z,52.21
2017-07-06T05:16:51.000Z,52.139
2017-07-06T05:26:51.000Z,51.544
2017-07-06T05:36:51.000Z,50.692
2017-07-06T05:46:51.000Z,50.569
2017-07-06T05:56:51.000Z,50.323
2017-07-06T06:06:51.000Z,51.486
2017-07-06T06:16:51.000Z,50.683
2017-07-06T06:26:51.000Z,50.003
2017-07-06T06:36:51.000Z,49.835
2017-07-06T06:46:51.000Z,49.839
2017-07-06T06:56:51.000Z,50.373
2017-07-06T07:06:51.000Z,49.984
2017-07-06T07:16:51.000Z,50.419
2017-07-06T07:26:51.000Z,50.077
2017-07-06T07:36:51.000Z,49.063
2017-07-06T07:46:51.000Z,48.649
2017-07-06T07:56:51.000Z,48.204
2017-07-06T08:06:51.000Z,48.008
2017-07-06T08:16:51.000Z,47.871
2017-07-06T08:26:51.000Z,47.843
2017-07-06T08:36:51.000Z,48.308
2017-07-06T08:46:51.000Z,48.227
2017-07-06T08:56:55.000Z,47.885
2017-07-06T09:06:51.000Z,47.638
2017-07-06T09:16:51.000Z,46.985
2017-07-06T09:26:51.000Z,46.357
2017-07-06T09:36:51.000Z,45.974
2017-07-06T09:46:51.000Z,45.549
2017-07-06T09:56:51.000Z,45.07
2017-07-06T10:06:51.000Z,44.6
2017-07-06T10:16:51.000Z,44.121
2017-07-06T10:26:51.000Z,43.44
2017-07-06T10:36:51.000Z,42.83
2017-07-06T10:46:51.000Z,42.736
2017-07-06T10:56:51.000Z,42.233
2017-07-06T11:06:51.000Z,41.525
2017-07-06T11:16:51.000Z,40.367
2017-07-06T11:26:51.000Z,39.946
2017-07-06T11:36:51.000Z,38.249
2017-07-06T11:46:51.000Z,37.41
2017-07-06T11:56:52.000Z,37.685
2017-07-06T12:06:51.000Z,37.301
2017-07-06T12:16:51.000Z,37.11
2017-07-06T12:26:51.000Z,36.851
2017-07-06T12:36:51.000Z,36.775
2017-07-06T12:46:52.000Z,36.552
2017-07-06T12:56:52.000Z,36.404
2017-07-06T13:06:52.000Z,36.332
2017-07-06T13:16:52.000Z,36.2
2017-07-06T13:26:52.000Z,35.383
2017-07-06T13:36:52.000Z,34.805
2017-07-06T13:46:52.000Z,34.462
2017-07-06T13:56:52.000Z,34.543
2017-07-06T14:16:52.000Z,34.713
2017-07-06T14:26:52.000Z,34.624
2017-07-06T14:36:52.000Z,34.445
2017-07-06T14:46:52.000Z,34.508
2017-07-06T15:06:52.000Z,34.697
2017-07-06T15:16:52.000Z,35.399
2017-07-06T15:26:52.000Z,35.146
2017-07-06T15:36:52.000Z,35.297
2017-07-06T15:46:52.000Z,35.024
2017-07-06T15:56:52.000Z,35.63
2017-07-06T16:06:52.000Z,35.708
2017-07-06T16:16:52.000Z,35.419
2017-07-06T16:26:52.000Z,34.908
2017-07-06T16:36:52.000Z,34.637
2017-07-06T16:46:52.000Z,34.868
2017-07-06T16:56:52.000Z,34.775
2017-07-06T17:06:52.000Z,34.785
2017-07-06T17:16:52.000Z,34.822
2017-07-06T17:26:52.000Z,35.321
2017-07-06T17:46:52.000Z,35.733
2017-07-06T17:56:52.000Z,35.529
2017-07-06T18:06:52.000Z,35.716
2017-07-06T18:16:52.000Z,35.904
2017-07-06T18:36:52.000Z,36.494
2017-07-06T18:46:52.000Z,36.917
2017-07-06T18:56:52.000Z,37.558
2017-07-06T19:06:52.000Z,37.887
2017-07-06T19:16:52.000Z,38.049
2017-07-06T19:26:52.000Z,38.082
2017-07-06T19:36:52.000Z,38.571
2017-07-06T19:46:52.000Z,38.959
2017-07-06T19:56:52.000Z,39.148
2017-07-06T20:06:52.000Z,39.457
2017-07-06T20:16:52.000Z,40.107
2017-07-06T20:26:52.000Z,40.624
2017-07-06T20:36:52.000Z,40.666
2017-07-06T20:46:52.000Z,40.795
2017-07-06T20:56:53.000Z,40.859
2017-07-06T21:06:53.000Z,40.902
2017-07-06T21:16:53.000Z,41.02
2017-07-06T21:26:56.000Z,41.338
2017-07-06T21:36:54.000Z,41.935
2017-07-06T21:46:53.000Z,41.921
2017-07-06T21:56:53.000Z,42.549
2017-07-06T22:06:53.000Z,43.543
2017-07-06T22:16:53.000Z,43.439
2017-07-06T22:26:53.000Z,43.756
2017-07-06T22:36:53.000Z,43.686
2017-07-06T22:46:53.000Z,44.459
2017-07-06T22:56:54.000Z,45.089
2017-07-06T23:06:53.000Z,45.163
2017-07-06T23:16:53.000Z,45.559
2017-07-06T23:26:53.000Z,45.862
2017-07-06T23:36:53.000Z,45.671
2017-07-06T23:46:53.000Z,45.545
2017-07-06T23:56:53.000Z,45.542
